Time,TemperatureF,DewpointF,PressureIn,WindDirection,WindDirectionDegrees,WindSpeedMPH,WindSpeedGustMPH,Humidity,HourlyPrecipIn,Conditions,Clouds,dailyrainin,SoftwareType,DateUTC
2013-11-24 00:02:00,48.2,44.2,30.03,East,90,0.0,0.0,86,0.00,,---,0.00,VWS V14.01,2013-11-24 07:02:00,
2013-11-24 00:08:00,48.2,44.2,30.03,East,90,0.0,0.0,86,0.00,,---,0.00,VWS V14.01,2013-11-24 07:08:00,
2013-11-24 00:13:00,48.2,44.2,30.03,East,90,0.0,0.0,86,0.00,,---,0.00,VWS V14.01,2013-11-24 07:13:00,
2013-11-24 00:18:00,48.2,44.2,30.03,East,90,0.0,0.0,86,0.00,,---,0.00,VWS V14.01,2013-11-24 07:18:00,
2013-11-24 00:23:00,48.2,44.2,30.03,East,90,0.0,1.3,86,0.00,,---,0.00,VWS V14.01,2013-11-24 07:23:00,
2013-11-24 00:28:00,48.2,44.2,30.03,East,90,0.0,0.0,86,0.00,,---,0.00,VWS V14.01,2013-11-24 07:28:00,
2013-11-24 00:33:00,48.2,44.2,30.03,East,90,3.4,3.4,86,0.00,,---,0.00,VWS V14.01,2013-11-24 07:33:00,
2013-11-24 00:38:00,48.0,44.3,30.03,NE,45,0.0,2.5,87,0.00,,---,0.00,VWS V14.01,2013-11-24 07:38:00,
2013-11-24 00:43:00,47.8,44.2,30.03,NE,45,2.2,2.2,87,0.00,,---,0.00,VWS V14.01,2013-11-24 07:43:00,
2013-11-24 00:48:00,47.8,44.2,30.03,East,90,0.0,0.0,87,0.00,,---,0.00,VWS V14.01,2013-11-24 07:48:00,
2013-11-24 00:53:00,47.7,44.0,30.03,East,90,0.0,0.0,87,0.00,,---,0.00,VWS V14.01,2013-11-24 07:53:00,
2013-11-24 00:58:00,47.7,44.0,30.03,East,90,0.0,0.0,87,0.00,,---,0.00,VWS V14.01,2013-11-24 07:58:00,
2013-11-24 01:03:00,47.5,43.8,30.03,NE,45,0.0,0.0,87,0.00,,---,0.00,VWS V14.01,2013-11-24 08:03:00,
2013-11-24 01:08:00,47.3,43.6,30.03,North,0,1.3,1.3,87,0.00,,---,0.00,VWS V14.01,2013-11-24 08:08:00,
2013-11-24 01:13:00,47.3,43.9,30.03,NE,45,0.0,2.5,88,0.00,,---,0.00,VWS V14.01,2013-11-24 08:13:00,
2013-11-24 01:18:00,47.1,43.5,30.03,NNE,22,0.0,0.0,87,0.00,,---,0.00,VWS V14.01,2013-11-24 08:18:00,
2013-11-24 01:23:00,47.1,43.8,30.03,North,0,1.6,1.6,88,0.00,,---,0.00,VWS V14.01,2013-11-24 08:23:00,
2013-11-24 01:28:00,46.9,43.6,30.03,North,0,0.0,0.0,88,0.00,,---,0.00,VWS V14.01,2013-11-24 08:28:00,
2013-11-24 01:33:00,46.9,43.6,30.03,ENE,68,0.0,0.0,88,0.00,,---,0.00,VWS V14.01,2013-11-24 08:33:00,
2013-11-24 01:38:00,46.8,43.4,30.03,NNW,338,0.9,0.9,88,0.00,,---,0.00,VWS V14.01,2013-11-24 08:38:00,
2013-11-24 01:43:00,46.8,43.4,30.03,NNW,338,0.0,1.3,88,0.00,,---,0.00,VWS V14.01,2013-11-24 08:43:00,
2013-11-24 01:48:00,46.6,43.2,30.03,North,0,0.0,1.3,88,0.00,,---,0.00,VWS V14.01,2013-11-24 08:48:00,
2013-11-24 01:53:00,46.6,43.5,30.03,North,0,0.0,0.0,89,0.00,,---,0.00,VWS V14.01,2013-11-24 08:53:00,
2013-11-24 01:59:00,46.6,43.5,30.03,North,0,0.0,1.6,89,0.00,,---,0.00,VWS V14.01,2013-11-24 08:59:00,
2013-11-24 02:04:00,46.4,43.0,30.03,NNW,338,0.0,0.0,88,0.00,,---,0.00,VWS V14.01,2013-11-24 09:04:00,
2013-11-24 02:09:00,46.4,43.0,30.03,NW,315,0.0,0.0,88,0.00,,---,0.00,VWS V14.01,2013-11-24 09:09:00,
2013-11-24 02:14:00,46.4,43.0,30.03,NW,315,0.0,0.0,88,0.00,,---,0.00,VWS V14.01,2013-11-24 09:14:00,
2013-11-24 02:19:00,46.2,42.9,30.03,NW,315,0.0,0.0,88,0.00,,---,0.00,VWS V14.01,2013-11-24 09:19:00,
2013-11-24 02:24:00,46.2,42.9,30.03,NW,315,0.0,0.0,88,0.00,,---,0.00,VWS V14.01,2013-11-24 09:24:00,
2013-11-24 02:29:00,46.2,42.9,30.03,WSW,248,0.0,0.0,88,0.00,,---,0.00,VWS V14.01,2013-11-24 09:29:00,
2013-11-24 02:34:00,46.2,43.2,30.03,WSW,248,0.0,0.0,89,0.00,,---,0.00,VWS V14.01,2013-11-24 09:34:00,
2013-11-24 02:39:00,46.0,43.3,30.03,WSW,248,0.0,0.0,90,0.00,,---,0.00,VWS V14.01,2013-11-24 09:39:00,
2013-11-24 02:44:00,46.0,43.0,30.03,East,90,1.3,1.3,89,0.00,,---,0.00,VWS V14.01,2013-11-24 09:44:00,
2013-11-24 02:49:00,46.2,43.5,30.03,East,90,0.0,0.0,90,0.00,,---,0.00,VWS V14.01,2013-11-24 09:49:00,
2013-11-24 02:54:00,46.2,43.5,30.03,East,90,0.0,0.0,90,0.00,,---,0.00,VWS V14.01,2013-11-24 09:54:00,
2013-11-24 02:59:00,46.4,43.6,30.03,ENE,68,0.0,0.0,90,0.00,,---,0.00,VWS V14.01,2013-11-24 09:59:00,
2013-11-24 03:04:00,46.4,43.9,30.03,NNW,338,0.0,0.0,91,0.00,,---,0.00,VWS V14.01,2013-11-24 10:04:00,
2013-11-24 03:10:00,46.4,43.9,30.03,NNE,22,0.0,0.0,91,0.00,,---,0.00,VWS V14.01,2013-11-24 10:10:00,
2013-11-24 03:15:00,46.4,43.9,30.03,ENE,68,0.0,0.0,91,0.00,,---,0.00,VWS V14.01,2013-11-24 10:15:00,
2013-11-24 03:20:00,46.4,43.9,30.03,ENE,68,0.0,0.0,91,0.00,,---,0.00,VWS V14.01,2013-11-24 10:20:00,
2013-11-24 03:25:00,46.2,43.7,30.03,ENE,68,0.0,0.0,91,0.00,,---,0.00,VWS V14.01,2013-11-24 10:25:00,
2013-11-24 03:30:00,46.2,44.0,30.03,ENE,68,0.0,0.0,92,0.00,,---,0.00,VWS V14.01,2013-11-24 10:30:00,
2013-11-24 03:35:00,46.2,44.0,30.03,NNE,22,0.0,0.0,92,0.00,,---,0.00,VWS V14.01,2013-11-24 10:35:00,
2013-11-24 03:40:00,46.2,44.0,30.03,NE,45,0.0,0.0,92,0.00,,---,0.00,VWS V14.01,2013-11-24 10:40:00,
2013-11-24 03:45:00,46.2,44.0,30.03,NE,45,0.0,0.0,92,0.00,,---,0.00,VWS V14.01,2013-11-24 10:45:00,
2013-11-24 03:50:00,46.2,44.0,30.03,NNE,22,0.0,0.0,92,0.00,,---,0.00,VWS V14.01,2013-11-24 10:50:00,
2013-11-24 03:55:00,46.2,44.0,30.03,NNE,22,0.0,0.0,92,0.00,,---,0.00,VWS V14.01,2013-11-24 10:55:00,
2013-11-24 04:00:00,46.2,44.3,30.03,NE,45,2.5,2.5,93,0.00,,---,0.00,VWS V14.01,2013-11-24 11:00:00,
2013-11-24 04:05:00,46.2,44.0,30.03,North,0,1.1,1.1,92,0.00,,---,0.00,VWS V14.01,2013-11-24 11:05:00,
2013-11-24 04:10:00,46.2,43.5,30.03,NE,45,0.0,0.0,90,0.00,,---,0.00,VWS V14.01,2013-11-24 11:10:00,
2013-11-24 04:15:00,46.2,43.2,30.03,NE,45,0.0,0.0,89,0.00,,---,0.00,VWS V14.01,2013-11-24 11:15:00,
2013-11-24 04:20:00,46.0,42.7,30.03,NE,45,0.0,0.0,88,0.00,,---,0.00,VWS V14.01,2013-11-24 11:20:00,
2013-11-24 04:25:00,46.0,42.4,30.03,NE,45,0.9,0.9,87,0.00,,---,0.00,VWS V14.01,2013-11-24 11:25:00,
2013-11-24 04:30:00,46.0,42.4,30.03,NNE,22,0.0,0.0,87,0.00,,---,0.00,VWS V14.01,2013-11-24 11:30:00,
2013-11-24 04:35:00,46.0,42.4,30.03,North,0,2.0,2.0,87,0.00,,---,0.00,VWS V14.01,2013-11-24 11:35:00,
2013-11-24 04:41:00,46.0,42.4,30.03,NNW,338,3.1,3.1,87,0.00,,---,0.00,VWS V14.01,2013-11-24 11:41:00,
2013-11-24 04:46:00,46.0,42.4,30.03,NNW,338,0.0,0.0,87,0.00,,---,0.00,VWS V14.01,2013-11-24 11:46:00,
2013-11-24 04:51:00,46.0,42.1,30.03,NNE,22,0.0,0.0,86,0.00,,---,0.00,VWS V14.01,2013-11-24 11:51:00,
2013-11-24 04:56:00,46.0,42.1,30.03,NNW,338,0.0,0.0,86,0.00,,---,0.00,VWS V14.01,2013-11-24 11:56:00,
2013-11-24 05:01:00,46.0,41.8,30.03,East,90,0.0,1.3,85,0.00,,---,0.00,VWS V14.01,2013-11-24 12:01:00,
2013-11-24 05:06:00,46.0,41.8,30.03,North,0,0.0,0.0,85,0.00,,---,0.00,VWS V14.01,2013-11-24 12:06:00,
2013-11-24 05:11:00,45.9,41.6,30.03,NE,45,0.0,0.0,85,0.00,,---,0.00,VWS V14.01,2013-11-24 12:11:00,
2013-11-24 05:16:00,45.5,41.0,30.03,ESE,112,0.0,0.0,84,0.00,,---,0.00,VWS V14.01,2013-11-24 12:16:00,
2013-11-24 05:21:00,45.5,41.0,30.03,East,90,0.0,0.0,84,0.00,,---,0.00,VWS V14.01,2013-11-24 12:21:00,
2013-11-24 05:26:00,45.3,41.1,30.03,East,90,0.0,0.0,85,0.00,,---,0.00,VWS V14.01,2013-11-24 12:26:00,
2013-11-24 05:31:00,45.1,40.9,30.03,East,90,0.0,0.0,85,0.00,,---,0.00,VWS V14.01,2013-11-24 12:31:00,
2013-11-24 05:36:00,44.8,40.5,30.03,ENE,68,0.0,0.0,85,0.00,,---,0.00,VWS V14.01,2013-11-24 12:36:00,
2013-11-24 05:41:00,44.8,40.5,30.03,NE,45,0.0,0.0,85,0.00,,---,0.00,VWS V14.01,2013-11-24 12:41:00,
2013-11-24 05:47:00,44.6,40.4,30.03,ENE,68,0.0,0.0,85,0.00,,---,0.00,VWS V14.01,2013-11-24 12:47:00,
2013-11-24 05:52:00,44.4,40.5,30.03,East,90,0.0,0.0,86,0.00,,---,0.00,VWS V14.01,2013-11-24 12:52:00,
2013-11-24 05:57:00,44.2,40.3,30.06,East,90,2.5,2.5,86,0.00,,---,0.00,VWS V14.01,2013-11-24 12:57:00,
2013-11-24 06:02:00,44.1,40.2,30.06,NE,45,0.0,0.0,86,0.00,,---,0.00,VWS V14.01,2013-11-24 13:02:00,
2013-11-24 06:07:00,44.1,40.5,30.06,NE,45,0.0,0.0,87,0.00,,---,0.00,VWS V14.01,2013-11-24 13:07:00,
2013-11-24 06:12:00,44.1,40.5,30.06,North,0,0.9,0.9,87,0.00,,---,0.00,VWS V14.01,2013-11-24 13:12:00,
2013-11-24 06:17:00,44.1,40.5,30.06,NNW,338,2.2,2.2,87,0.00,,---,0.00,VWS V14.01,2013-11-24 13:17:00,
2013-11-24 06:22:00,44.1,40.5,30.06,North,0,0.0,0.0,87,0.00,,---,0.00,VWS V14.01,2013-11-24 13:22:00,
2013-11-24 06:27:00,44.1,40.5,30.06,ENE,68,0.0,0.0,87,0.00,,---,0.00,VWS V14.01,2013-11-24 13:27:00,
2013-11-24 06:32:00,44.1,40.5,30.06,NNE,22,2.0,2.0,87,0.00,,---,0.00,VWS V14.01,2013-11-24 13:32:00,
2013-11-24 06:37:00,44.1,40.5,30.06,ENE,68,0.0,0.0,87,0.00,,---,0.00,VWS V14.01,2013-11-24 13:37:00,
2013-11-24 06:43:00,43.7,39.8,30.06,SE,135,0.0,0.0,86,0.00,,---,0.00,VWS V14.01,2013-11-24 13:43:00,
2013-11-24 06:48:00,43.7,39.8,30.06,SE,135,0.0,0.0,86,0.00,,---,0.00,VWS V14.01,2013-11-24 13:48:00,
2013-11-24 06:53:00,43.5,39.6,30.06,East,90,1.6,2.0,86,0.00,,---,0.00,VWS V14.01,2013-11-24 13:53:00,
2013-11-24 06:58:00,43.3,39.4,30.06,East,90,2.7,2.7,86,0.00,,---,0.00,VWS V14.01,2013-11-24 13:58:00,
2013-11-24 07:03:00,43.0,39.4,30.06,East,90,0.0,0.0,87,0.00,,---,0.00,VWS V14.01,2013-11-24 14:03:00,
2013-11-24 07:08:00,43.0,39.4,30.06,East,90,0.0,1.1,87,0.00,,---,0.00,VWS V14.01,2013-11-24 14:08:00,
2013-11-24 07:13:00,42.8,39.2,30.06,ESE,112,0.0,0.0,87,0.00,,---,0.00,VWS V14.01,2013-11-24 14:13:00,
2013-11-24 07:18:00,42.8,39.2,30.06,East,90,0.0,0.0,87,0.00,,---,0.00,VWS V14.01,2013-11-24 14:18:00,
2013-11-24 07:23:00,42.8,39.2,30.06,East,90,0.0,0.0,87,0.00,,---,0.00,VWS V14.01,2013-11-24 14:23:00,
2013-11-24 07:28:00,42.6,39.3,30.06,East,90,0.0,0.0,88,0.00,,---,0.00,VWS V14.01,2013-11-24 14:28:00,
2013-11-24 07:33:00,42.6,39.3,30.06,East,90,0.0,0.0,88,0.00,,---,0.00,VWS V14.01,2013-11-24 14:33:00,
2013-11-24 07:38:00,42.6,39.3,30.06,East,90,0.0,0.0,88,0.00,,---,0.00,VWS V14.01,2013-11-24 14:38:00,
2013-11-24 07:43:00,42.6,39.3,30.09,East,90,0.0,0.0,88,0.00,,---,0.00,VWS V14.01,2013-11-24 14:43:00,
2013-11-24 07:49:00,42.8,39.5,30.09,East,90,0.0,0.0,88,0.00,,---,0.00,VWS V14.01,2013-11-24 14:49:00,
2013-11-24 07:54:00,43.0,40.0,30.09,East,90,0.0,0.0,89,0.00,,---,0.00,VWS V14.01,2013-11-24 14:54:00,
2013-11-24 07:59:00,43.2,40.1,30.09,East,90,0.0,0.0,89,0.00,,---,0.00,VWS V14.01,2013-11-24 14:59:00,
2013-11-24 08:04:00,43.3,40.6,30.09,East,90,0.0,0.0,90,0.00,,---,0.00,VWS V14.01,2013-11-24 15:04:00,
2013-11-24 08:09:00,43.5,40.8,30.09,East,90,0.0,0.0,90,0.00,,---,0.00,VWS V14.01,2013-11-24 15:09:00,
2013-11-24 08:14:00,43.7,41.2,30.09,ESE,112,0.0,0.0,91,0.00,,---,0.00,VWS V14.01,2013-11-24 15:14:00,
2013-11-24 08:19:00,44.1,41.6,30.09,East,90,2.5,2.5,91,0.00,,---,0.00,VWS V14.01,2013-11-24 15:19:00,
2013-11-24 08:24:00,44.2,41.8,30.09,East,90,2.5,2.5,91,0.00,,---,0.00,VWS V14.01,2013-11-24 15:24:00,
2013-11-24 08:29:00,45.0,42.5,30.09,East,90,1.6,2.2,91,0.00,,---,0.00,VWS V14.01,2013-11-24 15:29:00,
2013-11-24 08:34:00,45.7,43.5,30.09,SE,135,2.2,2.2,92,0.00,,---,0.00,VWS V14.01,2013-11-24 15:34:00,
2013-11-24 08:39:00,45.9,43.4,30.09,NNE,22,0.0,1.1,91,0.00,,---,0.00,VWS V14.01,2013-11-24 15:39:00,
2013-11-24 08:44:00,46.4,43.3,30.09,East,90,0.0,0.0,89,0.00,,---,0.00,VWS V14.01,2013-11-24 15:44:00,
2013-11-24 08:49:00,46.9,44.2,30.09,East,90,0.0,0.0,90,0.00,,---,0.00,VWS V14.01,2013-11-24 15:49:00,
2013-11-24 08:54:00,47.5,44.7,30.09,ESE,112,0.0,0.0,90,0.00,,---,0.00,VWS V14.01,2013-11-24 15:54:00,
2013-11-24 08:59:00,48.0,45.2,30.09,NW,315,0.0,0.0,90,0.00,,---,0.00,VWS V14.01,2013-11-24 15:59:00,
2013-11-24 09:04:00,48.4,43.8,30.09,NW,315,1.3,1.3,84,0.00,,---,0.00,VWS V14.01,2013-11-24 16:04:00,
2013-11-24 09:10:00,48.7,43.8,30.09,NW,315,0.0,0.0,83,0.00,,---,0.00,VWS V14.01,2013-11-24 16:10:00,
2013-11-24 09:15:00,49.1,43.8,30.09,NNW,338,0.0,0.0,82,0.00,,---,0.00,VWS V14.01,2013-11-24 16:15:00,
2013-11-24 09:20:00,49.5,43.2,30.09,East,90,2.2,2.2,79,0.00,,---,0.00,VWS V14.01,2013-11-24 16:20:00,
2013-11-24 09:25:00,49.8,43.6,30.09,ESE,112,2.0,2.0,79,0.00,,---,0.00,VWS V14.01,2013-11-24 16:25:00,
2013-11-24 09:30:00,50.7,45.8,30.09,South,180,0.0,0.0,83,0.00,,---,0.00,VWS V14.01,2013-11-24 16:30:00,
2013-11-24 09:35:00,51.3,45.3,30.09,East,90,1.6,2.9,80,0.00,,---,0.00,VWS V14.01,2013-11-24 16:35:00,
2013-11-24 09:40:00,51.6,43.6,30.09,NNW,338,1.1,1.1,74,0.00,,---,0.00,VWS V14.01,2013-11-24 16:40:00,
2013-11-24 09:45:00,52.0,44.3,30.09,SE,135,2.7,3.6,75,0.00,,---,0.00,VWS V14.01,2013-11-24 16:45:00,
2013-11-24 09:50:00,52.5,44.1,30.09,East,90,4.9,4.9,73,0.00,,---,0.00,VWS V14.01,2013-11-24 16:50:00,
2013-11-24 09:55:00,52.7,42.1,30.09,NE,45,1.6,1.6,67,0.00,,---,0.00,VWS V14.01,2013-11-24 16:55:00,
2013-11-24 10:00:00,53.4,45.7,30.09,ENE,68,2.7,3.4,75,0.00,,---,0.00,VWS V14.01,2013-11-24 17:00:00,
2013-11-24 10:05:00,53.4,44.3,30.09,NE,45,2.9,4.3,71,0.00,,---,0.00,VWS V14.01,2013-11-24 17:05:00,
2013-11-24 10:10:00,53.6,44.1,30.09,ESE,112,3.1,5.8,70,0.00,,---,0.00,VWS V14.01,2013-11-24 17:10:00,
2013-11-24 10:16:00,54.1,45.3,30.09,SSW,202,0.0,0.0,72,0.00,,---,0.00,VWS V14.01,2013-11-24 17:16:00,
2013-11-24 10:21:00,54.7,45.5,30.09,SE,135,4.0,4.0,71,0.00,,---,0.00,VWS V14.01,2013-11-24 17:21:00,
2013-11-24 10:26:00,55.0,45.5,30.09,NNE,22,1.3,1.3,70,0.00,,---,0.00,VWS V14.01,2013-11-24 17:26:00,
2013-11-24 10:31:00,54.5,43.4,30.09,NE,45,0.0,1.6,66,0.00,,---,0.00,VWS V14.01,2013-11-24 17:31:00,
2013-11-24 10:36:00,54.9,44.9,30.09,ESE,112,2.7,2.7,69,0.00,,---,0.00,VWS V14.01,2013-11-24 17:36:00,
2013-11-24 10:41:00,55.6,46.3,30.09,SE,135,2.5,2.9,71,0.00,,---,0.00,VWS V14.01,2013-11-24 17:41:00,
2013-11-24 10:46:00,55.9,45.9,30.09,ESE,112,1.6,2.2,69,0.00,,---,0.00,VWS V14.01,2013-11-24 17:46:00,
2013-11-24 10:51:00,56.5,47.2,30.09,SE,135,0.0,0.0,71,0.00,,---,0.00,VWS V14.01,2013-11-24 17:51:00,
2013-11-24 10:56:00,56.8,47.2,30.09,South,180,2.0,2.0,70,0.00,,---,0.00,VWS V14.01,2013-11-24 17:56:00,
2013-11-24 11:01:00,57.2,47.1,30.09,WSW,248,2.2,2.2,69,0.00,,---,0.00,VWS V14.01,2013-11-24 18:01:00,
2013-11-24 11:06:00,57.4,46.9,30.09,WSW,248,2.5,2.5,68,0.00,,---,0.00,VWS V14.01,2013-11-24 18:06:00,
2013-11-24 11:11:00,57.7,47.7,30.09,SW,225,2.9,2.9,69,0.00,,---,0.00,VWS V14.01,2013-11-24 18:11:00,
2013-11-24 11:16:00,58.1,47.6,30.09,SE,135,2.0,2.0,68,0.00,,---,0.00,VWS V14.01,2013-11-24 18:16:00,
2013-11-24 11:21:00,58.6,48.1,30.09,SW,225,2.0,2.0,68,0.00,,---,0.00,VWS V14.01,2013-11-24 18:21:00,
2013-11-24 11:26:00,58.8,47.9,30.09,WSW,248,3.1,3.1,67,0.00,,---,0.00,VWS V14.01,2013-11-24 18:26:00,
2013-11-24 11:31:00,58.5,47.2,30.09,WSW,248,1.1,1.1,66,0.00,,---,0.00,VWS V14.01,2013-11-24 18:31:00,
2013-11-24 11:36:00,57.6,45.5,30.09,WSW,248,1.6,1.6,64,0.00,,---,0.00,VWS V14.01,2013-11-24 18:36:00,
2013-11-24 11:41:00,57.2,45.2,30.09,South,180,2.0,2.0,64,0.00,,---,0.00,VWS V14.01,2013-11-24 18:41:00,
2013-11-24 11:46:00,58.1,46.0,30.09,SW,225,2.0,3.1,64,0.00,,---,0.00,VWS V14.01,2013-11-24 18:46:00,
2013-11-24 11:52:00,58.5,47.2,30.09,WSW,248,3.1,3.4,66,0.00,,---,0.00,VWS V14.01,2013-11-24 18:52:00,
2013-11-24 11:57:00,58.6,46.9,30.06,SW,225,3.1,3.1,65,0.00,,---,0.00,VWS V14.01,2013-11-24 18:57:00,
2013-11-24 12:02:00,59.0,46.4,30.06,WSW,248,3.1,3.1,63,0.00,,---,0.00,VWS V14.01,2013-11-24 19:02:00,
2013-11-24 12:07:00,59.2,45.3,30.06,SSW,202,3.4,3.4,60,0.00,,---,0.00,VWS V14.01,2013-11-24 19:07:00,
2013-11-24 12:12:00,59.5,46.5,30.06,West,270,2.7,2.7,62,0.00,,---,0.00,VWS V14.01,2013-11-24 19:12:00,
2013-11-24 12:17:00,59.7,46.3,30.06,WNW,292,1.6,1.6,61,0.00,,---,0.00,VWS V14.01,2013-11-24 19:17:00,
2013-11-24 12:22:00,60.1,45.7,30.06,SW,225,3.8,3.8,59,0.00,,---,0.00,VWS V14.01,2013-11-24 19:22:00,
2013-11-24 12:27:00,60.1,44.8,30.06,West,270,0.9,0.9,57,0.00,,---,0.00,VWS V14.01,2013-11-24 19:27:00,
2013-11-24 12:32:00,60.3,45.9,30.06,SE,135,2.5,2.5,59,0.00,,---,0.00,VWS V14.01,2013-11-24 19:32:00,
2013-11-24 12:37:00,60.4,46.1,30.06,SE,135,2.0,3.8,59,0.00,,---,0.00,VWS V14.01,2013-11-24 19:37:00,
2013-11-24 12:42:00,60.3,45.4,30.03,WSW,248,2.7,2.7,58,0.00,,---,0.00,VWS V14.01,2013-11-24 19:42:00,
2013-11-24 12:47:00,59.5,42.4,30.03,WSW,248,6.5,6.5,53,0.00,,---,0.00,VWS V14.01,2013-11-24 19:47:00,
2013-11-24 12:52:00,59.2,41.1,30.03,WSW,248,3.8,3.8,51,0.00,,---,0.00,VWS V14.01,2013-11-24 19:52:00,
2013-11-24 12:57:00,58.5,39.9,30.03,West,270,2.7,2.7,50,0.00,,---,0.00,VWS V14.01,2013-11-24 19:57:00,
2013-11-24 13:02:00,58.3,42.7,30.03,SW,225,2.0,2.0,56,0.00,,---,0.00,VWS V14.01,2013-11-24 20:02:00,
2013-11-24 13:07:00,58.8,44.5,30.03,SW,225,1.1,2.0,59,0.00,,---,0.00,VWS V14.01,2013-11-24 20:07:00,
2013-11-24 13:12:00,59.9,45.5,30.03,WSW,248,4.5,4.5,59,0.00,,---,0.00,VWS V14.01,2013-11-24 20:12:00,
2013-11-24 13:17:00,59.9,46.0,30.03,SW,225,1.6,2.7,60,0.00,,---,0.00,VWS V14.01,2013-11-24 20:17:00,
2013-11-24 13:22:00,59.7,44.9,30.03,SW,225,5.6,5.6,58,0.00,,---,0.00,VWS V14.01,2013-11-24 20:22:00,
2013-11-24 13:28:00,59.5,45.2,30.03,WSW,248,1.3,2.7,59,0.00,,---,0.00,VWS V14.01,2013-11-24 20:28:00,
2013-11-24 13:33:00,59.4,44.6,30.03,West,270,2.5,2.5,58,0.00,,---,0.00,VWS V14.01,2013-11-24 20:33:00,
2013-11-24 13:38:00,59.9,45.1,30.03,WSW,248,4.9,4.9,58,0.00,,---,0.00,VWS V14.01,2013-11-24 20:38:00,
2013-11-24 13:43:00,60.1,42.9,30.03,WSW,248,2.2,2.2,53,0.00,,---,0.00,VWS V14.01,2013-11-24 20:43:00,
2013-11-24 13:48:00,59.9,42.7,30.03,West,270,3.1,3.1,53,0.00,,---,0.00,VWS V14.01,2013-11-24 20:48:00,
2013-11-24 13:53:00,59.4,38.6,30.03,WNW,292,2.7,3.6,46,0.00,,---,0.00,VWS V14.01,2013-11-24 20:53:00,
2013-11-24 13:58:00,59.2,42.1,30.03,WSW,248,2.0,2.9,53,0.00,,---,0.00,VWS V14.01,2013-11-24 20:58:00,
2013-11-24 14:03:00,59.4,43.2,30.03,WSW,248,3.1,3.4,55,0.00,,---,0.00,VWS V14.01,2013-11-24 21:03:00,
2013-11-24 14:08:00,59.7,42.6,30.03,West,270,4.0,4.0,53,0.00,,---,0.00,VWS V14.01,2013-11-24 21:08:00,
2013-11-24 14:13:00,59.7,43.5,30.03,WSW,248,3.8,3.8,55,0.00,,---,0.00,VWS V14.01,2013-11-24 21:13:00,
2013-11-24 14:18:00,59.5,42.9,30.03,WSW,248,4.9,4.9,54,0.00,,---,0.00,VWS V14.01,2013-11-24 21:18:00,
2013-11-24 14:24:00,59.7,43.5,30.03,WSW,248,2.9,2.9,55,0.00,,---,0.00,VWS V14.01,2013-11-24 21:24:00,
2013-11-24 14:29:00,59.9,44.7,30.03,NNW,338,2.0,2.0,57,0.00,,---,0.00,VWS V14.01,2013-11-24 21:29:00,
2013-11-24 14:34:00,59.7,44.0,30.03,WSW,248,5.6,5.6,56,0.00,,---,0.00,VWS V14.01,2013-11-24 21:34:00,
2013-11-24 14:39:00,59.5,44.8,30.03,West,270,2.5,2.5,58,0.00,,---,0.00,VWS V14.01,2013-11-24 21:39:00,
2013-11-24 14:44:00,59.5,44.3,30.03,SSW,202,5.6,8.5,57,0.00,,---,0.00,VWS V14.01,2013-11-24 21:44:00,
2013-11-24 14:49:00,58.8,43.2,30.03,WSW,248,4.3,4.3,56,0.00,,---,0.00,VWS V14.01,2013-11-24 21:49:00,
2013-11-24 14:54:00,59.2,43.5,30.03,West,270,3.4,3.4,56,0.00,,---,0.00,VWS V14.01,2013-11-24 21:54:00,
2013-11-24 14:59:00,59.2,41.6,30.03,NW,315,2.7,2.7,52,0.00,,---,0.00,VWS V14.01,2013-11-24 21:59:00,
2013-11-24 15:04:00,59.2,44.0,30.03,WSW,248,3.1,3.1,57,0.00,,---,0.00,VWS V14.01,2013-11-24 22:04:00,
2013-11-24 15:09:00,59.5,43.4,30.03,NW,315,3.4,3.4,55,0.00,,---,0.00,VWS V14.01,2013-11-24 22:09:00,
2013-11-24 15:15:00,59.5,43.8,30.03,SW,225,2.9,3.4,56,0.00,,---,0.00,VWS V14.01,2013-11-24 22:15:00,
2013-11-24 15:20:00,59.5,43.8,30.03,East,90,1.6,1.6,56,0.00,,---,0.00,VWS V14.01,2013-11-24 22:20:00,
2013-11-24 15:25:00,59.5,43.8,30.03,SW,225,2.7,2.7,56,0.00,,---,0.00,VWS V14.01,2013-11-24 22:25:00,
2013-11-24 15:30:00,59.2,41.6,30.03,WSW,248,1.3,1.3,52,0.00,,---,0.00,VWS V14.01,2013-11-24 22:30:00,
2013-11-24 15:35:00,59.2,42.6,30.03,West,270,1.6,1.6,54,0.00,,---,0.00,VWS V14.01,2013-11-24 22:35:00,
2013-11-24 15:40:00,59.2,40.6,30.03,NW,315,2.0,2.0,50,0.00,,---,0.00,VWS V14.01,2013-11-24 22:40:00,
2013-11-24 15:45:00,58.8,40.8,30.03,NW,315,3.1,3.1,51,0.00,,---,0.00,VWS V14.01,2013-11-24 22:45:00,
2013-11-24 15:50:00,58.5,41.4,30.03,NNW,338,2.9,2.9,53,0.00,,---,0.00,VWS V14.01,2013-11-24 22:50:00,
2013-11-24 15:55:00,58.3,40.2,30.03,West,270,2.5,3.8,51,0.00,,---,0.00,VWS V14.01,2013-11-24 22:55:00,
2013-11-24 16:00:00,58.1,40.6,30.03,NNW,338,1.1,2.7,52,0.00,,---,0.00,VWS V14.01,2013-11-24 23:00:00,
2013-11-24 16:05:00,57.9,40.4,30.03,West,270,3.1,3.1,52,0.00,,---,0.00,VWS V14.01,2013-11-24 23:05:00,
2013-11-24 16:10:00,57.9,41.4,30.03,West,270,2.2,2.5,54,0.00,,---,0.00,VWS V14.01,2013-11-24 23:10:00,
2013-11-24 16:16:00,57.7,42.2,30.03,WNW,292,3.4,3.4,56,0.00,,---,0.00,VWS V14.01,2013-11-24 23:16:00,
2013-11-24 16:21:00,57.6,42.5,30.03,NW,315,0.0,0.0,57,0.00,,---,0.00,VWS V14.01,2013-11-24 23:21:00,
2013-11-24 16:26:00,57.4,42.3,30.03,WSW,248,1.3,1.3,57,0.00,,---,0.00,VWS V14.01,2013-11-24 23:26:00,
2013-11-24 16:31:00,56.8,42.2,30.03,WSW,248,0.9,0.9,58,0.00,,---,0.00,VWS V14.01,2013-11-24 23:31:00,
2013-11-24 16:36:00,56.7,42.1,30.03,SW,225,3.1,3.1,58,0.00,,---,0.00,VWS V14.01,2013-11-24 23:36:00,
2013-11-24 16:41:00,56.3,39.9,30.03,WSW,248,2.7,2.7,54,0.00,,---,0.00,VWS V14.01,2013-11-24 23:41:00,
2013-11-24 16:46:00,55.9,40.9,30.03,West,270,3.1,3.1,57,0.00,,---,0.00,VWS V14.01,2013-11-24 23:46:00,
2013-11-24 16:51:00,55.6,41.0,30.03,WSW,248,1.6,3.1,58,0.00,,---,0.00,VWS V14.01,2013-11-24 23:51:00,
2013-11-24 16:56:00,55.2,41.2,30.03,NNE,22,2.7,2.7,59,0.00,,---,0.00,VWS V14.01,2013-11-24 23:56:00,
2013-11-24 17:01:00,54.9,41.2,30.03,NW,315,2.7,2.7,60,0.00,,---,0.00,VWS V14.01,2013-11-25 00:01:00,
2013-11-24 17:06:00,54.3,40.3,30.03,WNW,292,2.9,2.9,59,0.00,,---,0.00,VWS V14.01,2013-11-25 00:06:00,
2013-11-24 17:11:00,54.1,39.7,30.03,NNW,338,2.0,2.0,58,0.00,,---,0.00,VWS V14.01,2013-11-25 00:11:00,
2013-11-24 17:17:00,53.6,36.9,30.03,NNE,22,3.1,3.1,53,0.00,,---,0.00,VWS V14.01,2013-11-25 00:17:00,
2013-11-24 17:22:00,53.1,36.9,30.03,NNW,338,5.4,5.4,54,0.00,,---,0.00,VWS V14.01,2013-11-25 00:22:00,
2013-11-24 17:27:00,52.5,36.8,30.03,NNW,338,2.5,2.5,55,0.00,,---,0.00,VWS V14.01,2013-11-25 00:27:00,
2013-11-24 17:32:00,52.2,36.5,30.03,North,0,3.1,3.1,55,0.00,,---,0.00,VWS V14.01,2013-11-25 00:32:00,
2013-11-24 17:37:00,51.6,36.0,30.03,North,0,1.6,1.6,55,0.00,,---,0.00,VWS V14.01,2013-11-25 00:37:00,
2013-11-24 17:42:00,51.4,36.7,30.03,NW,315,2.7,2.7,57,0.00,,---,0.00,VWS V14.01,2013-11-25 00:42:00,
2013-11-24 17:47:00,51.1,36.4,30.03,NNW,338,2.0,2.0,57,0.00,,---,0.00,VWS V14.01,2013-11-25 00:47:00,
2013-11-24 17:52:00,50.7,36.5,30.03,NW,315,2.7,2.7,58,0.00,,---,0.00,VWS V14.01,2013-11-25 00:52:00,
2013-11-24 17:57:00,50.4,35.7,30.06,NNW,338,3.4,3.4,57,0.00,,---,0.00,VWS V14.01,2013-11-25 00:57:00,
2013-11-24 18:02:00,50.0,35.8,30.06,NW,315,2.7,3.1,58,0.00,,---,0.00,VWS V14.01,2013-11-25 01:02:00,
2013-11-24 18:07:00,49.6,35.9,30.06,NW,315,6.0,6.0,59,0.00,,---,0.00,VWS V14.01,2013-11-25 01:07:00,
2013-11-24 18:12:00,49.5,35.7,30.06,NNW,338,4.3,4.3,59,0.00,,---,0.00,VWS V14.01,2013-11-25 01:12:00,
2013-11-24 18:17:00,49.3,35.6,30.06,NNW,338,2.7,3.1,59,0.00,,---,0.00,VWS V14.01,2013-11-25 01:17:00,
2013-11-24 18:22:00,49.1,35.4,30.06,NNW,338,5.6,5.6,59,0.00,,---,0.00,VWS V14.01,2013-11-25 01:22:00,
2013-11-24 18:27:00,48.9,35.2,30.06,NW,315,2.9,6.3,59,0.00,,---,0.00,VWS V14.01,2013-11-25 01:27:00,
2013-11-24 18:32:00,48.7,35.1,30.06,North,0,3.4,5.4,59,0.00,,---,0.00,VWS V14.01,2013-11-25 01:32:00,
2013-11-24 18:37:00,48.6,34.9,30.06,NNW,338,2.0,3.4,59,0.00,,---,0.00,VWS V14.01,2013-11-25 01:37:00,
2013-11-24 18:42:00,48.4,34.7,30.06,North,0,2.7,5.8,59,0.00,,---,0.00,VWS V14.01,2013-11-25 01:42:00,
2013-11-24 18:47:00,48.2,34.6,30.06,NNW,338,3.1,3.8,59,0.00,,---,0.00,VWS V14.01,2013-11-25 01:47:00,
2013-11-24 18:52:00,48.0,34.4,30.06,North,0,3.6,3.6,59,0.00,,---,0.00,VWS V14.01,2013-11-25 01:52:00,
2013-11-24 18:58:00,47.8,34.6,30.06,NNW,338,3.4,3.4,60,0.00,,---,0.00,VWS V14.01,2013-11-25 01:58:00,
2013-11-24 19:03:00,47.8,34.6,30.06,NE,45,3.1,3.1,60,0.00,,---,0.00,VWS V14.01,2013-11-25 02:03:00,
2013-11-24 19:08:00,47.5,34.7,30.06,NNW,338,1.6,1.6,61,0.00,,---,0.00,VWS V14.01,2013-11-25 02:08:00,
2013-11-24 19:13:00,47.3,34.5,30.06,NNW,338,3.1,3.8,61,0.00,,---,0.00,VWS V14.01,2013-11-25 02:13:00,
2013-11-24 19:18:00,47.3,34.5,30.06,North,0,1.3,4.7,61,0.00,,---,0.00,VWS V14.01,2013-11-25 02:18:00,
2013-11-24 19:23:00,47.1,34.8,30.06,North,0,1.3,3.1,62,0.00,,---,0.00,VWS V14.01,2013-11-25 02:23:00,
2013-11-24 19:28:00,47.1,34.4,30.09,NW,315,2.5,4.9,61,0.00,,---,0.00,VWS V14.01,2013-11-25 02:28:00,
2013-11-24 19:33:00,46.9,34.6,30.09,NW,315,4.5,7.2,62,0.00,,---,0.00,VWS V14.01,2013-11-25 02:33:00,
2013-11-24 19:38:00,46.8,34.4,30.09,WNW,292,3.1,3.1,62,0.00,,---,0.00,VWS V14.01,2013-11-25 02:38:00,
2013-11-24 19:43:00,46.8,34.4,30.09,NNE,22,2.5,2.5,62,0.00,,---,0.00,VWS V14.01,2013-11-25 02:43:00,
2013-11-24 19:48:00,46.6,34.3,30.09,North,0,3.6,4.9,62,0.00,,---,0.00,VWS V14.01,2013-11-25 02:48:00,
2013-11-24 19:53:00,46.4,34.5,30.09,NW,315,3.4,5.8,63,0.00,,---,0.00,VWS V14.01,2013-11-25 02:53:00,
2013-11-24 19:59:00,46.4,34.5,30.09,NW,315,4.3,4.3,63,0.00,,---,0.00,VWS V14.01,2013-11-25 02:59:00,
2013-11-24 20:04:00,46.4,34.5,30.09,North,0,4.5,4.5,63,0.00,,---,0.00,VWS V14.01,2013-11-25 03:04:00,
2013-11-24 20:09:00,46.2,34.3,30.09,NNW,338,3.8,4.7,63,0.00,,---,0.00,VWS V14.01,2013-11-25 03:09:00,
2013-11-24 20:14:00,46.2,34.3,30.09,NNW,338,5.6,5.6,63,0.00,,---,0.00,VWS V14.01,2013-11-25 03:14:00,
2013-11-24 20:19:00,46.0,34.2,30.09,NNW,338,4.0,4.0,63,0.00,,---,0.00,VWS V14.01,2013-11-25 03:19:00,
2013-11-24 20:24:00,46.0,33.8,30.09,NW,315,2.9,4.7,62,0.00,,---,0.00,VWS V14.01,2013-11-25 03:24:00,
2013-11-24 20:29:00,46.0,33.8,30.09,North,0,2.0,2.0,62,0.00,,---,0.00,VWS V14.01,2013-11-25 03:29:00,
2013-11-24 20:34:00,46.0,33.8,30.09,NNW,338,2.5,2.5,62,0.00,,---,0.00,VWS V14.01,2013-11-25 03:34:00,
2013-11-24 20:39:00,45.9,33.6,30.09,WNW,292,2.0,5.6,62,0.00,,---,0.00,VWS V14.01,2013-11-25 03:39:00,
2013-11-24 20:44:00,45.9,33.6,30.09,NNW,338,2.9,2.9,62,0.00,,---,0.00,VWS V14.01,2013-11-25 03:44:00,
2013-11-24 20:49:00,45.7,33.4,30.09,NW,315,4.3,4.3,62,0.00,,---,0.00,VWS V14.01,2013-11-25 03:49:00,
2013-11-24 20:54:00,45.7,33.4,30.09,NNE,22,2.7,2.7,62,0.00,,---,0.00,VWS V14.01,2013-11-25 03:54:00,
2013-11-24 21:00:00,45.7,33.8,30.09,NNW,338,2.5,2.9,63,0.00,,---,0.00,VWS V14.01,2013-11-25 04:00:00,
2013-11-24 21:05:00,45.5,33.2,30.09,NE,45,4.3,4.3,62,0.00,,---,0.00,VWS V14.01,2013-11-25 04:05:00,
2013-11-24 21:10:00,45.5,33.2,30.09,North,0,4.3,4.3,62,0.00,,---,0.00,VWS V14.01,2013-11-25 04:10:00,
2013-11-24 21:15:00,45.3,33.1,30.09,NNW,338,3.1,3.4,62,0.00,,---,0.00,VWS V14.01,2013-11-25 04:15:00,
2013-11-24 21:20:00,45.3,33.5,30.09,North,0,3.6,5.8,63,0.00,,---,0.00,VWS V14.01,2013-11-25 04:20:00,
2013-11-24 21:25:00,45.3,33.5,30.09,NNW,338,4.0,4.0,63,0.00,,---,0.00,VWS V14.01,2013-11-25 04:25:00,
2013-11-24 21:30:00,45.3,33.5,30.09,NNW,338,2.9,2.9,63,0.00,,---,0.00,VWS V14.01,2013-11-25 04:30:00,
2013-11-24 21:35:00,45.3,33.5,30.09,NNW,338,3.4,4.3,63,0.00,,---,0.00,VWS V14.01,2013-11-25 04:35:00,
2013-11-24 21:40:00,45.1,33.3,30.09,NNE,22,2.2,2.2,63,0.00,,---,0.00,VWS V14.01,2013-11-25 04:40:00,
2013-11-24 21:45:00,45.1,33.3,30.09,ENE,68,3.1,3.1,63,0.00,,---,0.00,VWS V14.01,2013-11-25 04:45:00,
2013-11-24 21:50:00,45.0,33.1,30.09,NNW,338,2.7,2.7,63,0.00,,---,0.00,VWS V14.01,2013-11-25 04:50:00,
2013-11-24 21:55:00,45.0,33.5,30.09,NNW,338,2.0,2.5,64,0.00,,---,0.00,VWS V14.01,2013-11-25 04:55:00,
2013-11-24 22:00:00,45.0,33.1,30.09,NW,315,0.9,0.9,63,0.00,,---,0.00,VWS V14.01,2013-11-25 05:00:00,
2013-11-24 22:01:00,45.0,33.1,30.09,SW,225,0.9,0.9,63,0.00,,---,0.00,VWS V14.01,2013-11-25 05:01:00,
2013-11-24 22:02:00,45.0,33.1,30.09,North,0,1.3,1.3,63,0.00,,---,0.00,VWS V14.01,2013-11-25 05:02:00,
2013-11-24 22:04:00,44.8,33.4,30.09,NE,45,2.5,3.1,64,0.00,,---,0.00,VWS V14.01,2013-11-25 05:04:00,
2013-11-24 22:09:00,44.8,33.4,30.09,NW,315,1.6,3.6,64,0.00,,---,0.00,VWS V14.01,2013-11-25 05:09:00,
2013-11-24 22:14:00,44.6,33.2,30.09,NNE,22,3.1,3.1,64,0.00,,---,0.00,VWS V14.01,2013-11-25 05:14:00,
2013-11-24 22:19:00,44.6,33.2,30.09,NNW,338,1.1,1.1,64,0.00,,---,0.00,VWS V14.01,2013-11-25 05:19:00,
2013-11-24 22:25:00,44.6,33.2,30.09,North,0,3.1,3.1,64,0.00,,---,0.00,VWS V14.01,2013-11-25 05:25:00,
2013-11-24 22:30:00,44.4,33.4,30.12,NNW,338,1.3,1.3,65,0.00,,---,0.00,VWS V14.01,2013-11-25 05:30:00,
2013-11-24 22:35:00,44.4,33.4,30.12,North,0,2.5,2.5,65,0.00,,---,0.00,VWS V14.01,2013-11-25 05:35:00,
2013-11-24 22:40:00,44.2,33.2,30.12,NNE,22,2.2,2.2,65,0.00,,---,0.00,VWS V14.01,2013-11-25 05:40:00,
2013-11-24 22:45:00,44.2,33.2,30.12,NNW,338,2.0,2.0,65,0.00,,---,0.00,VWS V14.01,2013-11-25 05:45:00,
2013-11-24 22:50:00,44.4,33.4,30.12,NNW,338,2.0,2.0,65,0.00,,---,0.00,VWS V14.01,2013-11-25 05:50:00,
2013-11-24 22:55:00,44.2,33.2,30.12,NNW,338,2.9,2.9,65,0.00,,---,0.00,VWS V14.01,2013-11-25 05:55:00,
2013-11-24 23:00:00,44.2,33.2,30.12,NW,315,3.1,3.1,65,0.00,,---,0.00,VWS V14.01,2013-11-25 06:00:00,
2013-11-24 23:05:00,44.2,33.2,30.12,NNW,338,2.9,2.9,65,0.00,,---,0.00,VWS V14.01,2013-11-25 06:05:00,
2013-11-24 23:10:00,44.1,33.1,30.12,NNW,338,2.0,2.9,65,0.00,,---,0.00,VWS V14.01,2013-11-25 06:10:00,
2013-11-24 23:15:00,44.1,33.1,30.12,North,0,3.4,3.4,65,0.00,,---,0.00,VWS V14.01,2013-11-25 06:15:00,
2013-11-24 23:20:00,43.9,32.9,30.12,North,0,1.3,1.3,65,0.00,,---,0.00,VWS V14.01,2013-11-25 06:20:00,
2013-11-24 23:26:00,43.7,33.1,30.12,NNW,338,1.6,1.6,66,0.00,,---,0.00,VWS V14.01,2013-11-25 06:26:00,
2013-11-24 23:31:00,43.5,32.9,30.12,NNW,338,0.0,0.0,66,0.00,,---,0.00,VWS V14.01,2013-11-25 06:31:00,
2013-11-24 23:36:00,43.3,32.8,30.12,NNE,22,2.5,2.5,66,0.00,,---,0.00,VWS V14.01,2013-11-25 06:36:00,
2013-11-24 23:41:00,43.2,33.0,30.09,NNE,22,0.9,0.9,67,0.00,,---,0.00,VWS V14.01,2013-11-25 06:41:00,
2013-11-24 23:46:00,43.2,33.3,30.09,NW,315,1.1,1.1,68,0.00,,---,0.00,VWS V14.01,2013-11-25 06:46:00,
2013-11-24 23:51:00,43.0,33.2,30.09,North,0,2.5,2.5,68,0.00,,---,0.00,VWS V14.01,2013-11-25 06:51:00,
2013-11-24 23:56:00,43.0,33.2,30.09,NNE,22,1.1,1.3,68,0.00,,---,0.00,VWS V14.01,2013-11-25 06:56:00,